Time;durP1;ratioP1;P1;durP2;ratioP2;P2;SDS_P1;SDS_P2;PMS_P1;PMS_P2;Temp;Humidity;BMP_temperature;BMP_pressure;BME280_temperature;BME280_humidity;BME280_pressure;Samples;Min_cycle;Max_cycle;Signal;HPM_P1;HPM_P2
2023/09/02 00:02:14;;;;;;;2.00;0.95;;;19.00;99.90;;;;;;5053404;28;20142;-83
2023/09/02 00:04:40;;;;;;;2.72;0.70;;;18.90;99.90;;;;;;5054128;28;20048;-83
2023/09/02 00:07:06;;;;;;;3.30;0.80;;;18.90;99.90;;;;;;5056125;28;20511;-83
2023/09/02 00:09:31;;;;;;;4.32;0.80;;;18.90;99.90;;;;;;5055653;28;20032;-87
2023/09/02 00:11:57;;;;;;;1.23;0.80;;;18.90;99.90;;;;;;5055596;28;20033;-83
2023/09/02 00:14:22;;;;;;;2.30;0.80;;;18.80;99.90;;;;;;5055875;28;20025;-83
2023/09/02 00:16:48;;;;;;;2.22;0.80;;;18.80;99.90;;;;;;5055997;28;20033;-83
2023/09/02 00:19:13;;;;;;;1.58;0.90;;;18.70;99.90;;;;;;5056895;28;20474;-83
2023/09/02 00:21:39;;;;;;;2.03;0.90;;;18.80;99.90;;;;;;5056129;28;20148;-83
2023/09/02 00:24:05;;;;;;;2.10;0.70;;;18.80;99.90;;;;;;5055907;28;20461;-82
2023/09/02 00:26:32;;;;;;;2.72;1.27;;;18.80;99.90;;;;;;5056452;28;20100;-88
2023/09/02 00:28:59;;;;;;;4.20;1.10;;;18.80;99.90;;;;;;5057093;28;20400;-83
2023/09/02 00:31:24;;;;;;;1.35;0.90;;;18.90;99.90;;;;;;5055730;28;20036;-82
2023/09/02 00:33:50;;;;;;;3.35;1.08;;;18.90;99.90;;;;;;5056311;28;20025;-83
2023/09/02 00:36:16;;;;;;;2.25;1.10;;;18.90;99.90;;;;;;5056408;28;20031;-83
2023/09/02 00:38:41;;;;;;;2.85;1.08;;;18.80;99.90;;;;;;5055309;28;20107;-83
2023/09/02 00:41:12;;;;;;;1.63;1.08;;;18.70;99.90;;;;;;5056423;28;20021;-83
2023/09/02 00:43:39;;;;;;;3.08;1.02;;;18.70;99.90;;;;;;5055151;28;20025;-83
2023/09/02 00:46:06;;;;;;;2.67;0.90;;;18.70;99.90;;;;;;5055454;28;20032;-83
2023/09/02 00:48:32;;;;;;;2.50;1.00;;;18.70;99.90;;;;;;5054943;28;20060;-89
2023/09/02 00:50:59;;;;;;;3.50;0.82;;;18.70;99.90;;;;;;5055087;28;20037;-83
2023/09/02 00:53:24;;;;;;;2.58;0.95;;;18.60;99.90;;;;;;5055395;28;20102;-83
2023/09/02 00:55:52;;;;;;;6.05;0.85;;;18.60;99.90;;;;;;5055060;28;20257;-82
2023/09/02 00:58:19;;;;;;;3.78;1.05;;;18.50;99.90;;;;;;5054817;28;20025;-83
2023/09/02 01:00:45;;;;;;;1.52;1.15;;;18.50;99.90;;;;;;5054900;28;20033;-82
2023/09/02 01:03:11;;;;;;;1.33;0.77;;;18.50;99.90;;;;;;5055076;28;20033;-82
2023/09/02 01:05:37;;;;;;;2.55;0.90;;;18.40;99.90;;;;;;5055972;28;20393;-83
2023/09/02 01:08:05;;;;;;;1.67;1.00;;;18.30;99.90;;;;;;5055002;28;20032;-82
2023/09/02 01:10:34;;;;;;;3.70;1.10;;;18.30;99.90;;;;;;5055206;28;20033;-81
2023/09/02 01:13:01;;;;;;;2.80;0.95;;;18.30;99.90;;;;;;5055105;28;20063;-80
2023/09/02 01:15:26;;;;;;;2.55;1.02;;;18.30;99.90;;;;;;5054509;28;20025;-82
2023/09/02 01:17:52;;;;;;;3.38;0.80;;;18.30;99.90;;;;;;5054576;28;20121;-80
2023/09/02 01:20:19;;;;;;;1.33;0.88;;;18.40;99.90;;;;;;5056052;28;20410;-80
2023/09/02 01:23:32;;;;;;;3.05;1.13;;;18.40;99.90;;;;;;5054253;28;20036;-81
2023/09/02 01:26:07;;;;;;;2.67;1.00;;;18.40;99.90;;;;;;5054414;28;20033;-81
2023/09/02 01:28:40;;;;;;;1.45;0.77;;;18.40;99.90;;;;;;5054160;28;20120;-85
2023/09/02 01:31:08;;;;;;;2.80;1.13;;;18.40;99.90;;;;;;5055414;28;20031;-81
2023/09/02 01:33:36;;;;;;;3.20;1.15;;;18.50;99.90;;;;;;5055228;28;20469;-87
2023/09/02 01:36:02;;;;;;;3.10;1.10;;;18.50;99.90;;;;;;5054555;28;20025;-80
2023/09/02 01:38:31;;;;;;;1.75;0.85;;;18.40;99.90;;;;;;5054341;28;20063;-81
2023/09/02 01:40:58;;;;;;;2.38;0.90;;;18.40;99.90;;;;;;5054653;28;20029;-82
2023/09/02 01:43:26;;;;;;;1.83;0.90;;;18.40;99.90;;;;;;5055179;28;20112;-81
2023/09/02 01:45:52;;;;;;;2.70;1.08;;;18.40;99.90;;;;;;5053849;28;20029;-81
2023/09/02 01:48:19;;;;;;;3.47;0.80;;;18.30;99.90;;;;;;5053724;28;20083;-81
2023/09/02 01:50:45;;;;;;;2.42;0.70;;;18.30;99.90;;;;;;5053677;28;20033;-81
2023/09/02 01:53:10;;;;;;;5.68;0.90;;;18.20;99.90;;;;;;5054833;28;20028;-81
2023/09/02 01:55:36;;;;;;;2.83;1.13;;;18.20;99.90;;;;;;5053507;28;20029;-87
2023/09/02 01:58:02;;;;;;;0.80;0.70;;;18.20;99.90;;;;;;5053693;28;20075;-81
2023/09/02 02:00:28;;;;;;;1.25;0.75;;;18.10;99.90;;;;;;5054030;28;20029;-82
2023/09/02 02:02:54;;;;;;;1.92;0.80;;;18.10;99.90;;;;;;5054479;28;20036;-80
2023/09/02 02:05:38;;;;;;;2.17;1.10;;;18.10;99.90;;;;;;5053841;28;20083;-81
2023/09/02 02:08:12;;;;;;;2.95;1.20;;;18.10;99.90;;;;;;5055058;28;20043;-82
2023/09/02 02:10:39;;;;;;;1.90;0.95;;;18.10;99.90;;;;;;5053527;28;20064;-88
2023/09/02 02:13:06;;;;;;;4.10;0.80;;;18.00;99.90;;;;;;5053434;28;20079;-82
2023/09/02 02:15:32;;;;;;;2.70;0.90;;;18.00;99.90;;;;;;5055170;28;20330;-81
2023/09/02 02:17:57;;;;;;;2.42;1.02;;;18.00;99.90;;;;;;5053234;28;20021;-82
2023/09/02 02:20:27;;;;;;;2.63;1.00;;;18.00;99.90;;;;;;5054961;28;20041;-82
2023/09/02 02:22:54;;;;;;;3.03;0.80;;;18.10;99.90;;;;;;5053188;28;20037;-82
2023/09/02 02:25:20;;;;;;;1.90;0.77;;;18.00;99.90;;;;;;5053669;28;20025;-82
2023/09/02 02:27:45;;;;;;;3.38;0.85;;;18.00;99.90;;;;;;5052415;28;20032;-82
2023/09/02 02:30:11;;;;;;;3.17;1.10;;;18.00;99.90;;;;;;5054661;28;20044;-81
2023/09/02 02:32:37;;;;;;;1.30;1.10;;;18.00;99.90;;;;;;5053004;28;20120;-89
2023/09/02 02:35:03;;;;;;;1.42;0.80;;;18.00;99.90;;;;;;5054383;28;20060;-82
2023/09/02 02:37:28;;;;;;;3.53;1.10;;;18.00;99.90;;;;;;5054506;28;20032;-81
2023/09/02 02:39:54;;;;;;;1.80;1.05;;;18.00;99.90;;;;;;5052876;28;20035;-81
2023/09/02 02:42:22;;;;;;;3.45;1.00;;;18.00;99.90;;;;;;5053605;28;20033;-81
2023/09/02 02:44:48;;;;;;;4.88;0.95;;;18.00;99.90;;;;;;5053804;28;20028;-82
2023/09/02 02:47:13;;;;;;;3.05;1.20;;;18.00;99.90;;;;;;5053180;28;20094;-82
2023/09/02 02:49:39;;;;;;;1.35;0.80;;;17.90;99.90;;;;;;5052399;28;20080;-85
2023/09/02 02:52:04;;;;;;;4.00;0.90;;;17.90;99.90;;;;;;5052704;28;20462;-82
2023/09/02 02:54:30;;;;;;;1.15;0.70;;;18.00;99.90;;;;;;5054092;28;20023;-81
2023/09/02 02:56:56;;;;;;;1.33;1.10;;;18.00;99.90;;;;;;5052777;28;20120;-80
2023/09/02 02:59:21;;;;;;;2.45;0.85;;;18.00;99.90;;;;;;5053167;28;20453;-81
2023/09/02 03:01:50;;;;;;;2.60;0.82;;;18.00;99.90;;;;;;5052552;28;20037;-82
2023/09/02 03:04:17;;;;;;;2.88;0.90;;;18.00;99.90;;;;;;5053119;28;20115;-81
2023/09/02 03:06:43;;;;;;;3.78;1.08;;;18.00;99.90;;;;;;5053441;28;20025;-83
2023/09/02 03:09:08;;;;;;;1.70;1.00;;;18.00;99.90;;;;;;5052698;28;20028;-81
2023/09/02 03:11:34;;;;;;;1.80;1.05;;;17.90;99.90;;;;;;5053780;28;20029;-81
2023/09/02 03:14:00;;;;;;;2.55;1.05;;;17.90;99.90;;;;;;5053209;28;20023;-81
2023/09/02 03:16:25;;;;;;;3.53;1.00;;;17.90;99.90;;;;;;5052934;28;20025;-81
2023/09/02 03:18:52;;;;;;;1.98;0.98;;;17.90;99.90;;;;;;5052708;28;20036;-82
2023/09/02 03:21:18;;;;;;;4.07;1.10;;;17.90;99.90;;;;;;5052935;28;20047;-82
2023/09/02 03:23:43;;;;;;;4.28;1.10;;;17.90;99.90;;;;;;5052645;28;20033;-84
2023/09/02 03:26:17;;;;;;;4.05;0.90;;;17.90;99.90;;;;;;5053770;28;20017;-82
2023/09/02 03:28:43;;;;;;;3.25;1.00;;;17.80;99.90;;;;;;5053712;28;20032;-87
2023/09/02 03:31:10;;;;;;;3.33;1.08;;;17.80;99.90;;;;;;5052479;28;20029;-82
2023/09/02 03:33:36;;;;;;;3.67;1.00;;;17.80;99.90;;;;;;5052390;28;20033;-82
2023/09/02 03:36:03;;;;;;;1.67;0.80;;;17.80;99.90;;;;;;5051767;28;20028;-82
2023/09/02 03:38:28;;;;;;;3.80;0.95;;;17.80;99.90;;;;;;5052888;28;20452;-82
2023/09/02 03:40:54;;;;;;;2.17;1.15;;;17.80;99.90;;;;;;5055974;28;20056;-82
2023/09/02 03:43:20;;;;;;;2.25;0.90;;;17.80;99.90;;;;;;5057685;28;20029;-82
2023/09/02 03:45:48;;;;;;;1.23;0.88;;;17.90;99.90;;;;;;5057077;28;20025;-82
2023/09/02 03:48:19;;;;;;;1.33;0.82;;;17.90;99.90;;;;;;5064037;28;20040;-82
2023/09/02 03:51:16;;;;;;;1.23;0.82;;;17.90;99.90;;;;;;5079401;28;20036;-84
2023/09/02 03:53:43;;;;;;;2.88;1.30;;;17.90;99.90;;;;;;5097561;28;20028;-88
2023/09/02 03:56:09;;;;;;;1.80;0.80;;;17.90;99.90;;;;;;5079513;28;20027;-82
2023/09/02 03:58:35;;;;;;;1.50;1.05;;;17.80;99.90;;;;;;5096513;28;20028;-82
2023/09/02 04:01:01;;;;;;;1.60;0.93;;;17.80;99.90;;;;;;5097172;28;20883;-82
2023/09/02 04:03:28;;;;;;;5.00;1.10;;;17.90;99.90;;;;;;5096335;28;20024;-82
2023/09/02 04:05:54;;;;;;;3.80;0.90;;;17.80;99.90;;;;;;5096980;28;20028;-81
2023/09/02 04:08:22;;;;;;;2.42;1.25;;;17.80;99.90;;;;;;5096340;28;20035;-81
2023/09/02 04:10:52;;;;;;;3.72;0.90;;;17.80;99.90;;;;;;5096499;28;20032;-82
2023/09/02 04:13:30;;;;;;;3.20;0.88;;;17.80;99.90;;;;;;5097224;28;20092;-81
2023/09/02 04:15:57;;;;;;;2.38;1.10;;;17.90;99.90;;;;;;5095789;28;20029;-81
2023/09/02 04:18:23;;;;;;;5.18;0.93;;;17.90;99.90;;;;;;5097493;28;20032;-81
2023/09/02 04:20:49;;;;;;;3.05;1.00;;;17.70;99.90;;;;;;5078936;28;20036;-82
2023/09/02 04:23:15;;;;;;;1.30;0.70;;;17.70;99.90;;;;;;5097103;28;20090;-81
2023/09/02 04:25:49;;;;;;;2.55;1.00;;;17.60;99.90;;;;;;5097294;28;20020;-81
2023/09/02 04:28:15;;;;;;;0.80;0.75;;;17.60;99.90;;;;;;5078916;28;20072;-80
2023/09/02 04:30:42;;;;;;;2.40;0.93;;;17.60;99.90;;;;;;5078943;28;20103;-81
2023/09/02 04:33:08;;;;;;;1.67;0.90;;;17.60;99.90;;;;;;5095522;28;20354;-81
2023/09/02 04:35:42;;;;;;;1.60;1.25;;;17.60;99.90;;;;;;5078937;28;20028;-82
2023/09/02 04:38:08;;;;;;;1.77;0.98;;;17.60;99.90;;;;;;5079001;28;20084;-81
2023/09/02 04:40:40;;;;;;;2.30;1.10;;;17.60;99.90;;;;;;5096152;28;20106;-81
2023/09/02 04:43:08;;;;;;;5.18;1.08;;;17.60;99.90;;;;;;5096810;28;20020;-81
2023/09/02 04:45:34;;;;;;;3.95;1.05;;;17.60;99.90;;;;;;5095781;28;20108;-81
2023/09/02 04:48:04;;;;;;;1.85;0.65;;;17.50;99.90;;;;;;5078172;28;20028;-82
2023/09/02 04:50:30;;;;;;;1.92;0.85;;;17.60;99.90;;;;;;5077879;28;20036;-83
2023/09/02 04:52:57;;;;;;;2.10;0.90;;;17.60;99.90;;;;;;5096265;28;20024;-82
2023/09/02 04:55:25;;;;;;;5.28;0.98;;;17.60;99.90;;;;;;5096559;28;20028;-83
2023/09/02 04:57:54;;;;;;;1.23;0.70;;;17.60;99.90;;;;;;5078283;28;20119;-83
2023/09/02 05:00:22;;;;;;;3.17;1.23;;;17.50;99.90;;;;;;5079000;28;20032;-82
2023/09/02 05:02:48;;;;;;;1.45;0.90;;;17.50;99.90;;;;;;5078136;28;20028;-85
2023/09/02 05:05:15;;;;;;;2.83;0.88;;;17.40;99.90;;;;;;5095092;28;20027;-81
2023/09/02 05:07:41;;;;;;;2.65;1.13;;;17.40;99.90;;;;;;5078567;28;20024;-81
2023/09/02 05:10:07;;;;;;;2.30;0.93;;;17.40;99.90;;;;;;5095896;28;20020;-81
2023/09/02 05:12:36;;;;;;;3.13;0.70;;;17.40;99.90;;;;;;5095183;28;20381;-81
2023/09/02 05:15:03;;;;;;;2.97;0.75;;;17.40;99.90;;;;;;5095884;28;20024;-81
2023/09/02 05:17:30;;;;;;;2.10;0.70;;;17.40;99.90;;;;;;5096076;28;20028;-82
2023/09/02 05:19:55;;;;;;;1.70;0.77;;;17.40;99.90;;;;;;5095839;28;20061;-82
2023/09/02 05:22:21;;;;;;;1.50;0.80;;;17.40;99.90;;;;;;5096279;28;20061;-82
2023/09/02 05:24:46;;;;;;;6.50;0.98;;;17.40;99.90;;;;;;5094981;28;20028;-84
2023/09/02 05:27:13;;;;;;;1.42;0.85;;;17.50;99.90;;;;;;5095469;28;20020;-81
2023/09/02 05:29:39;;;;;;;3.70;1.00;;;17.50;99.90;;;;;;5094499;28;20419;-81
2023/09/02 05:32:05;;;;;;;1.45;0.80;;;17.50;99.90;;;;;;5094540;28;20054;-81
2023/09/02 05:34:30;;;;;;;2.53;0.90;;;17.50;99.90;;;;;;5095800;28;20052;-81
2023/09/02 05:36:56;;;;;;;1.35;0.80;;;17.50;99.90;;;;;;5094351;28;20020;-81
2023/09/02 05:39:21;;;;;;;3.40;0.85;;;17.50;99.90;;;;;;5095600;28;20051;-81
2023/09/02 05:41:47;;;;;;;2.88;0.82;;;17.50;99.90;;;;;;5094620;28;20105;-85
2023/09/02 05:44:13;;;;;;;1.90;0.75;;;17.50;99.90;;;;;;5095397;28;20051;-81
2023/09/02 05:46:39;;;;;;;1.88;1.15;;;17.50;99.90;;;;;;5094460;28;20028;-81
2023/09/02 05:49:05;;;;;;;2.58;0.95;;;17.50;99.90;;;;;;5094815;28;20044;-81
2023/09/02 05:51:30;;;;;;;2.50;0.88;;;17.40;99.90;;;;;;5094325;28;20174;-80
2023/09/02 05:53:57;;;;;;;3.10;0.75;;;17.50;99.90;;;;;;5093981;28;20028;-80
2023/09/02 05:56:23;;;;;;;1.92;0.80;;;17.50;99.90;;;;;;5095299;28;20016;-80
2023/09/02 05:58:48;;;;;;;6.60;1.10;;;17.60;99.90;;;;;;5094293;28;20027;-85
2023/09/02 06:01:14;;;;;;;3.22;1.00;;;17.60;99.90;;;;;;5093976;28;20032;-80
2023/09/02 06:03:41;;;;;;;1.50;0.90;;;17.50;99.90;;;;;;5094946;28;20035;-80
2023/09/02 06:06:11;;;;;;;2.03;0.75;;;17.60;99.90;;;;;;5076836;28;20020;-80
2023/09/02 06:08:37;;;;;;;3.20;0.80;;;17.60;99.90;;;;;;5095147;28;20055;-80
2023/09/02 06:11:03;;;;;;;1.98;0.80;;;17.70;99.90;;;;;;5076665;28;20059;-81
2023/09/02 06:13:29;;;;;;;4.25;1.23;;;17.70;99.90;;;;;;5077071;28;20024;-80
2023/09/02 06:15:59;;;;;;;1.63;0.90;;;17.80;99.90;;;;;;5076722;28;20100;-81
2023/09/02 06:18:25;;;;;;;2.00;0.90;;;17.80;99.90;;;;;;5076878;28;20027;-80
2023/09/02 06:20:51;;;;;;;4.78;1.17;;;17.80;99.90;;;;;;5093660;28;20491;-82
2023/09/02 06:23:16;;;;;;;2.97;1.10;;;17.90;99.90;;;;;;5093664;28;20028;-81
2023/09/02 06:25:42;;;;;;;3.15;0.85;;;17.90;99.90;;;;;;5093663;28;20020;-81
2023/09/02 06:28:07;;;;;;;2.20;1.02;;;17.90;99.90;;;;;;5093147;28;20069;-80
2023/09/02 06:30:36;;;;;;;2.30;0.98;;;17.90;99.90;;;;;;5094386;28;20032;-80
2023/09/02 06:33:03;;;;;;;3.53;1.15;;;18.00;99.90;;;;;;5076291;28;20461;-81
2023/09/02 06:35:31;;;;;;;2.22;0.90;;;18.00;99.90;;;;;;5094496;28;20020;-81
2023/09/02 06:37:57;;;;;;;1.90;1.10;;;18.00;99.90;;;;;;5094037;28;20024;-81
2023/09/02 06:40:22;;;;;;;7.43;1.10;;;18.00;99.90;;;;;;5094500;28;20456;-81
2023/09/02 06:42:48;;;;;;;3.58;1.00;;;18.10;99.90;;;;;;5093506;28;20020;-80
2023/09/02 06:45:13;;;;;;;1.25;0.70;;;18.10;99.90;;;;;;5094079;28;20633;-81
2023/09/02 06:47:39;;;;;;;1.70;1.13;;;18.10;99.90;;;;;;5094490;28;20078;-81
2023/09/02 06:50:05;;;;;;;3.75;0.82;;;18.20;99.90;;;;;;5093419;28;20083;-80
2023/09/02 06:52:31;;;;;;;2.08;1.00;;;18.20;99.90;;;;;;5094322;28;20031;-80
2023/09/02 06:54:56;;;;;;;2.75;0.90;;;18.20;99.90;;;;;;5093787;28;20449;-81
2023/09/02 06:57:22;;;;;;;3.40;1.10;;;18.30;99.90;;;;;;5094293;28;20024;-80
2023/09/02 06:59:47;;;;;;;4.78;1.17;;;18.30;99.90;;;;;;5093347;28;20140;-80
2023/09/02 07:02:13;;;;;;;3.70;1.50;;;18.40;99.90;;;;;;5093768;28;20050;-80
2023/09/02 07:04:39;;;;;;;2.95;1.13;;;18.40;99.90;;;;;;5093435;28;20020;-81
2023/09/02 07:07:04;;;;;;;2.75;1.30;;;18.50;99.90;;;;;;5093577;28;20020;-81
2023/09/02 07:09:30;;;;;;;1.58;0.90;;;18.50;99.90;;;;;;5093881;28;20066;-81
2023/09/02 07:11:56;;;;;;;3.38;1.20;;;18.50;99.90;;;;;;5075539;28;20557;-86
2023/09/02 07:14:21;;;;;;;4.32;0.98;;;18.50;99.90;;;;;;5093258;28;20028;-81
2023/09/02 07:16:49;;;;;;;3.35;1.13;;;18.60;99.90;;;;;;5075886;28;20032;-80
2023/09/02 07:19:14;;;;;;;3.95;1.13;;;18.60;99.90;;;;;;5075395;28;20032;-81
2023/09/02 07:21:40;;;;;;;4.22;1.42;;;18.70;99.90;;;;;;5093102;28;20546;-81
2023/09/02 07:24:05;;;;;;;4.53;1.13;;;18.60;99.90;;;;;;5093510;28;20024;-81
2023/09/02 07:26:32;;;;;;;2.42;1.20;;;18.70;99.90;;;;;;5092615;28;20024;-81
2023/09/02 07:28:58;;;;;;;5.07;0.90;;;18.70;99.90;;;;;;5092656;28;20052;-86
2023/09/02 07:31:24;;;;;;;1.83;1.00;;;18.70;99.90;;;;;;5094081;28;20519;-81
2023/09/02 07:33:50;;;;;;;2.83;0.90;;;18.80;99.90;;;;;;5092902;28;20491;-81
2023/09/02 07:36:15;;;;;;;4.25;0.90;;;18.90;99.90;;;;;;5093445;28;20016;-81
2023/09/02 07:38:41;;;;;;;3.55;1.10;;;18.90;99.90;;;;;;5093104;28;20466;-81
2023/09/02 07:41:08;;;;;;;4.00;1.10;;;18.90;99.90;;;;;;5093734;28;20036;-80
2023/09/02 07:43:34;;;;;;;2.42;1.10;;;18.90;99.90;;;;;;5093112;28;20028;-80
2023/09/02 07:45:59;;;;;;;2.83;0.90;;;18.90;99.90;;;;;;5075764;28;20022;-82
2023/09/02 07:48:25;;;;;;;3.25;0.95;;;18.90;99.90;;;;;;5092568;28;20055;-82
2023/09/02 07:50:50;;;;;;;1.65;0.85;;;19.00;99.90;;;;;;5092848;28;20043;-81
2023/09/02 07:53:16;;;;;;;1.92;0.85;;;19.00;99.90;;;;;;5093379;28;20024;-81
2023/09/02 07:55:41;;;;;;;2.38;1.00;;;19.00;99.90;;;;;;5093861;28;20074;-81
2023/09/02 07:58:07;;;;;;;4.00;0.95;;;19.10;99.90;;;;;;5093347;28;20031;-81
2023/09/02 08:00:34;;;;;;;3.58;0.88;;;19.10;99.90;;;;;;5092560;28;20039;-81
2023/09/02 08:02:59;;;;;;;1.23;0.88;;;19.10;99.90;;;;;;5093593;28;20066;-86
2023/09/02 08:05:25;;;;;;;2.17;1.00;;;19.10;99.90;;;;;;5092871;28;20024;-80
2023/09/02 08:07:51;;;;;;;1.98;0.77;;;19.10;99.90;;;;;;5092600;28;20510;-81
2023/09/02 08:10:17;;;;;;;1.42;0.90;;;19.20;99.90;;;;;;5092038;28;20027;-81
2023/09/02 08:12:42;;;;;;;3.85;1.00;;;19.20;99.90;;;;;;5093454;28;20067;-81
2023/09/02 08:15:12;;;;;;;1.75;0.73;;;19.30;99.90;;;;;;5091979;28;20476;-81
2023/09/02 08:17:38;;;;;;;0.82;0.75;;;19.30;99.90;;;;;;5075629;28;20030;-79
2023/09/02 08:20:05;;;;;;;3.65;0.90;;;19.30;99.90;;;;;;5091977;28;20032;-81
2023/09/02 08:22:31;;;;;;;1.30;0.80;;;19.30;99.90;;;;;;5093454;28;20525;-81
2023/09/02 08:24:56;;;;;;;2.30;0.85;;;19.30;99.90;;;;;;5093738;28;20020;-80
2023/09/02 08:27:24;;;;;;;1.20;0.73;;;19.40;99.90;;;;;;5095496;28;20024;-81
2023/09/02 08:29:49;;;;;;;2.00;0.88;;;19.40;99.90;;;;;;5078843;28;20063;-83
2023/09/02 08:32:15;;;;;;;1.15;0.82;;;19.50;99.90;;;;;;5095868;28;20031;-82
2023/09/02 08:34:40;;;;;;;4.13;0.90;;;19.50;99.90;;;;;;5095999;28;20081;-80
2023/09/02 08:37:06;;;;;;;1.27;0.60;;;19.50;99.90;;;;;;5096200;28;20024;-81
2023/09/02 08:39:31;;;;;;;0.90;0.60;;;19.60;99.90;;;;;;5095683;28;20031;-80
2023/09/02 08:41:58;;;;;;;5.30;0.93;;;19.60;99.90;;;;;;5095981;28;20035;-80
2023/09/02 08:44:27;;;;;;;1.58;0.73;;;19.70;99.90;;;;;;5078770;28;20032;-80
2023/09/02 08:46:54;;;;;;;2.47;0.98;;;19.70;99.90;;;;;;5097089;28;20365;-80
2023/09/02 08:49:20;;;;;;;2.58;1.00;;;19.70;99.90;;;;;;5077658;28;20043;-80
2023/09/02 08:51:46;;;;;;;2.55;1.10;;;19.70;99.90;;;;;;5095563;28;20028;-79
2023/09/02 08:54:13;;;;;;;3.38;1.10;;;19.80;99.90;;;;;;5077924;28;20469;-79
2023/09/02 08:56:42;;;;;;;2.42;0.82;;;19.90;99.90;;;;;;5079103;28;20091;-80
2023/09/02 08:59:09;;;;;;;1.92;1.00;;;20.00;99.90;;;;;;5094765;28;20053;-79
2023/09/02 09:01:42;;;;;;;3.17;1.08;;;20.00;99.90;;;;;;5078282;28;20166;-79
2023/09/02 09:04:08;;;;;;;3.28;1.48;;;20.00;99.90;;;;;;5094768;28;20020;-80
2023/09/02 09:06:35;;;;;;;2.03;1.25;;;20.10;99.90;;;;;;5096511;28;20504;-80
2023/09/02 09:09:01;;;;;;;2.65;1.50;;;20.10;99.90;;;;;;5094912;28;20535;-88
2023/09/02 09:11:30;;;;;;;5.25;1.40;;;20.00;99.90;;;;;;5078339;28;20166;-79
2023/09/02 09:13:58;;;;;;;2.58;1.00;;;20.10;99.90;;;;;;5078100;28;20028;-80
2023/09/02 09:16:31;;;;;;;2.55;1.30;;;20.10;99.90;;;;;;5077800;28;20115;-80
2023/09/02 09:18:57;;;;;;;3.15;1.27;;;20.10;99.90;;;;;;5078287;28;20024;-80
2023/09/02 09:21:23;;;;;;;2.10;1.25;;;20.20;99.90;;;;;;5077973;28;20036;-80
2023/09/02 09:23:49;;;;;;;4.30;1.60;;;20.20;99.90;;;;;;5077884;28;20028;-80
2023/09/02 09:26:15;;;;;;;4.45;1.70;;;20.20;99.90;;;;;;5093988;28;20034;-80
2023/09/02 09:28:56;;;;;;;2.10;1.17;;;20.20;99.90;;;;;;5094640;28;20021;-79
2023/09/02 09:31:22;;;;;;;3.73;1.57;;;20.40;99.90;;;;;;5077181;28;20032;-80
2023/09/02 09:33:54;;;;;;;3.42;1.25;;;20.50;99.90;;;;;;5077815;28;20081;-80
2023/09/02 09:36:22;;;;;;;;;;;20.40;99.90;;;;;;5094032;28;20034;-81
2023/09/02 09:38:51;;;;;;;2.97;1.60;;;20.50;99.90;;;;;;5077388;28;19914;-81
2023/09/02 09:41:17;;;;;;;1.98;1.23;;;20.50;99.90;;;;;;5077509;28;20030;-81
2023/09/02 09:43:43;;;;;;;1.77;1.05;;;20.50;99.90;;;;;;5095990;28;20056;-81
2023/09/02 09:46:15;;;;;;;2.38;1.00;;;20.50;99.90;;;;;;5094155;28;20020;-81
2023/09/02 09:48:48;;;;;;;3.20;1.38;;;20.50;99.90;;;;;;5095107;28;20051;-81
2023/09/02 09:51:23;;;;;;;2.78;1.45;;;20.50;99.90;;;;;;5095186;28;20028;-81
2023/09/02 09:53:49;;;;;;;3.25;1.33;;;20.60;99.90;;;;;;5077582;28;20028;-81
2023/09/02 09:56:15;;;;;;;1.95;1.23;;;20.60;99.90;;;;;;5094671;28;20031;-81
2023/09/02 09:58:40;;;;;;;3.75;1.23;;;20.60;99.90;;;;;;5095172;28;20032;-79
2023/09/02 10:01:08;;;;;;;2.72;1.10;;;20.60;99.90;;;;;;5076882;28;20027;-81
2023/09/02 10:03:34;;;;;;;2.70;1.20;;;20.60;99.90;;;;;;5095017;28;20024;-81
2023/09/02 10:06:01;;;;;;;1.65;1.10;;;20.70;99.90;;;;;;5095431;28;20027;-81
2023/09/02 10:08:26;;;;;;;4.30;1.40;;;20.70;99.90;;;;;;5094595;28;20024;-81
2023/09/02 10:10:52;;;;;;;1.33;0.95;;;20.70;99.90;;;;;;5093870;28;20503;-81
2023/09/02 10:13:18;;;;;;;2.50;1.40;;;20.70;99.90;;;;;;5093418;28;20028;-80
2023/09/02 10:15:47;;;;;;;2.00;1.13;;;20.70;99.90;;;;;;5095045;28;20039;-80
2023/09/02 10:18:13;;;;;;;3.30;0.98;;;20.80;99.90;;;;;;5076587;28;20372;-81
2023/09/02 10:20:39;;;;;;;1.55;1.10;;;20.80;99.90;;;;;;5093526;28;20032;-81
2023/09/02 10:23:07;;;;;;;3.30;1.20;;;20.80;99.90;;;;;;5076308;28;20024;-83
2023/09/02 10:26:04;;;;;;;5.43;1.25;;;20.90;99.90;;;;;;5093843;28;20032;-81
2023/09/02 10:28:38;;;;;;;2.03;1.00;;;21.00;99.90;;;;;;5094988;28;20032;-80
2023/09/02 10:31:13;;;;;;;1.60;0.90;;;21.00;99.90;;;;;;5076652;28;20028;-81
2023/09/02 10:33:50;;;;;;;2.22;1.13;;;21.10;99.90;;;;;;5076882;28;20025;-81
2023/09/02 10:36:18;;;;;;;1.88;1.17;;;21.20;99.90;;;;;;5075976;28;20032;-81
2023/09/02 10:38:48;;;;;;;3.20;1.33;;;21.20;99.90;;;;;;5076362;28;20536;-80
2023/09/02 10:41:16;;;;;;;1.88;1.20;;;21.20;99.90;;;;;;5093822;28;20047;-81
2023/09/02 10:43:46;;;;;;;2.20;1.00;;;21.40;99.90;;;;;;5094741;28;20027;-81
2023/09/02 10:46:11;;;;;;;1.52;0.90;;;21.50;99.90;;;;;;5094270;28;20475;-81
2023/09/02 10:48:40;;;;;;;3.65;1.15;;;21.50;99.90;;;;;;5093182;28;20126;-82
2023/09/02 10:51:07;;;;;;;3.78;1.50;;;21.50;99.90;;;;;;5093779;28;20036;-86
2023/09/02 10:53:48;;;;;;;3.05;1.10;;;21.50;99.90;;;;;;5092770;28;20461;-81
2023/09/02 10:56:32;;;;;;;2.53;1.20;;;21.50;99.90;;;;;;5076086;28;20027;-81
2023/09/02 10:59:06;;;;;;;3.55;1.23;;;21.60;99.90;;;;;;5076015;28;20035;-81
2023/09/02 11:01:45;;;;;;;1.38;0.80;;;21.60;99.90;;;;;;5094292;28;20020;-81
2023/09/02 11:04:11;;;;;;;1.73;0.80;;;21.60;99.90;;;;;;5093901;28;20076;-81
2023/09/02 11:06:36;;;;;;;2.90;0.90;;;21.90;99.90;;;;;;5076185;28;20028;-81
2023/09/02 11:09:02;;;;;;;3.08;0.90;;;21.90;99.90;;;;;;5094165;28;20092;-81
2023/09/02 11:12:09;;;;;;;1.95;0.90;;;22.10;99.90;;;;;;5075182;28;20477;-81
2023/09/02 11:14:35;;;;;;;3.95;1.00;;;22.20;99.90;;;;;;5076097;28;20035;-82
2023/09/02 11:17:29;;;;;;;2.47;0.80;;;22.10;99.90;;;;;;5094096;28;20024;-80
2023/09/02 11:20:04;;;;;;;3.88;1.17;;;22.20;99.90;;;;;;5094240;28;20032;-81
2023/09/02 11:22:49;;;;;;;3.90;1.00;;;22.40;99.90;;;;;;5080150;28;20028;-81
2023/09/02 11:25:31;;;;;;;7.13;1.63;;;22.50;99.90;;;;;;5083424;28;20085;-82
2023/09/02 11:27:59;;;;;;;3.47;1.00;;;22.60;99.90;;;;;;5064011;28;20029;-82
2023/09/02 11:30:26;;;;;;;1.65;0.95;;;22.60;99.90;;;;;;5080247;28;20510;-82
2023/09/02 11:32:52;;;;;;;3.95;1.20;;;22.60;99.90;;;;;;5084145;28;20415;-82
2023/09/02 11:35:29;;;;;;;3.03;1.10;;;22.70;99.90;;;;;;5081554;28;20076;-83
2023/09/02 11:37:55;;;;;;;1.90;1.10;;;22.60;99.90;;;;;;5064149;28;20025;-82
2023/09/02 11:40:24;;;;;;;3.03;1.20;;;22.60;99.90;;;;;;5060650;28;20059;-82
2023/09/02 11:43:00;;;;;;;2.30;1.20;;;22.70;99.90;;;;;;5064407;28;20436;-82
2023/09/02 11:45:29;;;;;;;3.05;1.45;;;22.70;99.90;;;;;;5083836;28;20151;-81
2023/09/02 11:47:55;;;;;;;3.78;1.10;;;22.70;99.90;;;;;;5061846;28;20028;-81
2023/09/02 11:50:22;;;;;;;2.55;1.20;;;22.80;99.90;;;;;;5057684;28;20508;-83
2023/09/02 11:52:52;;;;;;;1.77;0.90;;;22.90;99.90;;;;;;5063833;28;20064;-87
2023/09/02 11:55:18;;;;;;;4.30;1.02;;;22.90;99.90;;;;;;5062071;28;20029;-82
2023/09/02 11:57:45;;;;;;;2.45;1.00;;;22.90;99.90;;;;;;5080726;28;20020;-81
2023/09/02 12:00:17;;;;;;;3.33;1.20;;;23.10;99.90;;;;;;5079026;28;20067;-84
2023/09/02 12:02:43;;;;;;;4.60;1.10;;;23.20;99.90;;;;;;5085584;28;20077;-81
2023/09/02 12:05:09;;;;;;;4.57;1.35;;;23.20;99.90;;;;;;5068000;28;20020;-81
2023/09/02 12:07:37;;;;;;;3.20;1.17;;;23.40;99.90;;;;;;5065038;28;20119;-81
2023/09/02 12:10:07;;;;;;;7.68;1.60;;;23.60;99.90;;;;;;5087859;28;20028;-80
2023/09/02 12:12:43;;;;;;;7.72;2.53;;;23.60;99.90;;;;;;5085446;28;20104;-80
2023/09/02 12:15:14;;;;;;;5.25;1.60;;;23.70;99.90;;;;;;5064988;28;20035;-80
2023/09/02 12:17:40;;;;;;;4.82;1.30;;;23.80;99.90;;;;;;5068611;28;20020;-80
2023/09/02 12:20:07;;;;;;;3.70;1.60;;;23.90;99.90;;;;;;5062599;28;20039;-80
2023/09/02 12:22:35;;;;;;;2.20;1.20;;;24.00;99.90;;;;;;5079995;28;20028;-84
2023/09/02 12:25:13;;;;;;;6.70;1.63;;;24.20;99.90;;;;;;5085442;28;20024;-80
2023/09/02 12:27:39;;;;;;;3.10;1.02;;;24.30;99.90;;;;;;5084401;28;20490;-81
2023/09/02 12:30:05;;;;;;;2.08;1.30;;;24.40;99.90;;;;;;5067390;28;20032;-80
2023/09/02 12:32:31;;;;;;;1.92;0.98;;;24.60;99.90;;;;;;5086330;28;20036;-79
2023/09/02 12:34:57;;;;;;;3.15;1.10;;;24.70;99.90;;;;;;5068313;28;20418;-80
2023/09/02 12:37:23;;;;;;;3.10;1.13;;;24.90;99.90;;;;;;5084588;28;20028;-80
2023/09/02 12:39:49;;;;;;;4.22;1.70;;;25.10;99.90;;;;;;5086139;28;20028;-80
2023/09/02 12:42:25;;;;;;;2.38;0.95;;;25.20;99.90;;;;;;5084540;28;20511;-84
2023/09/02 12:44:52;;;;;;;4.63;1.50;;;25.40;99.90;;;;;;5072456;28;20028;-80
2023/09/02 12:47:24;;;;;;;1.50;1.00;;;25.50;99.90;;;;;;5083176;28;20029;-80
2023/09/02 12:49:57;;;;;;;1.95;1.30;;;25.60;99.90;;;;;;5036980;28;20045;-80
2023/09/02 12:52:27;;;;;;;2.55;1.40;;;25.70;99.90;;;;;;5043305;28;20470;-80